sensor_id;sensor_type;location;lat;lon;timestamp;P1;durP1;ratioP1;P2;durP2;ratioP2
8665;SDS011;4370;48.916;8.380;2023-07-30T00:02:24;2.37;;;2.17;;
8665;SDS011;4370;48.916;8.380;2023-07-30T00:04:50;2.23;;;1.90;;
8665;SDS011;4370;48.916;8.380;2023-07-30T00:07:15;3.27;;;2.00;;
8665;SDS011;4370;48.916;8.380;2023-07-30T00:09:41;2.80;;;2.30;;
8665;SDS011;4370;48.916;8.380;2023-07-30T00:12:07;3.47;;;2.60;;
8665;SDS011;4370;48.916;8.380;2023-07-30T00:14:33;2.60;;;2.40;;
8665;SDS011;4370;48.916;8.380;2023-07-30T00:16:59;3.63;;;2.70;;
8665;SDS011;4370;48.916;8.380;2023-07-30T00:19:25;3.30;;;2.57;;
8665;SDS011;4370;48.916;8.380;2023-07-30T00:21:51;3.83;;;2.80;;
8665;SDS011;4370;48.916;8.380;2023-07-30T00:24:17;3.77;;;2.97;;
8665;SDS011;4370;48.916;8.380;2023-07-30T00:26:42;4.17;;;2.77;;
8665;SDS011;4370;48.916;8.380;2023-07-30T00:29:09;5.03;;;3.03;;
8665;SDS011;4370;48.916;8.380;2023-07-30T00:31:35;3.30;;;2.90;;
8665;SDS011;4370;48.916;8.380;2023-07-30T00:34:01;3.33;;;2.80;;
8665;SDS011;4370;48.916;8.380;2023-07-30T00:36:28;3.03;;;2.73;;
8665;SDS011;4370;48.916;8.380;2023-07-30T00:38:54;4.93;;;2.83;;
8665;SDS011;4370;48.916;8.380;2023-07-30T00:41:20;3.20;;;2.90;;
8665;SDS011;4370;48.916;8.380;2023-07-30T00:43:45;2.97;;;2.70;;
8665;SDS011;4370;48.916;8.380;2023-07-30T00:46:11;3.10;;;2.80;;
8665;SDS011;4370;48.916;8.380;2023-07-30T00:48:38;3.00;;;2.73;;
8665;SDS011;4370;48.916;8.380;2023-07-30T00:51:04;2.67;;;2.40;;
8665;SDS011;4370;48.916;8.380;2023-07-30T00:53:29;4.00;;;2.37;;
8665;SDS011;4370;48.916;8.380;2023-07-30T00:55:55;2.90;;;2.50;;
8665;SDS011;4370;48.916;8.380;2023-07-30T00:58:21;3.53;;;2.43;;
8665;SDS011;4370;48.916;8.380;2023-07-30T01:00:49;3.07;;;2.77;;
8665;SDS011;4370;48.916;8.380;2023-07-30T01:06:33;3.87;;;2.80;;
8665;SDS011;4370;48.916;8.380;2023-07-30T01:08:59;3.70;;;2.53;;
8665;SDS011;4370;48.916;8.380;2023-07-30T01:11:25;3.73;;;2.47;;
8665;SDS011;4370;48.916;8.380;2023-07-30T01:13:51;2.83;;;2.40;;
8665;SDS011;4370;48.916;8.380;2023-07-30T01:16:18;3.07;;;2.60;;
8665;SDS011;4370;48.916;8.380;2023-07-30T01:18:44;5.73;;;2.77;;
8665;SDS011;4370;48.916;8.380;2023-07-30T01:21:11;3.00;;;2.70;;
8665;SDS011;4370;48.916;8.380;2023-07-30T01:23:37;3.30;;;2.90;;
8665;SDS011;4370;48.916;8.380;2023-07-30T01:26:11;3.10;;;2.70;;
8665;SDS011;4370;48.916;8.380;2023-07-30T01:28:43;2.83;;;2.53;;
8665;SDS011;4370;48.916;8.380;2023-07-30T01:31:14;3.33;;;2.83;;
8665;SDS011;4370;48.916;8.380;2023-07-30T01:33:41;3.07;;;2.60;;
8665;SDS011;4370;48.916;8.380;2023-07-30T01:36:10;3.63;;;2.70;;
8665;SDS011;4370;48.916;8.380;2023-07-30T01:38:39;2.83;;;2.60;;
8665;SDS011;4370;48.916;8.380;2023-07-30T01:41:05;3.13;;;2.33;;
8665;SDS011;4370;48.916;8.380;2023-07-30T01:43:31;2.43;;;2.23;;
8665;SDS011;4370;48.916;8.380;2023-07-30T01:45:57;3.23;;;2.17;;
8665;SDS011;4370;48.916;8.380;2023-07-30T01:48:22;2.47;;;2.27;;
8665;SDS011;4370;48.916;8.380;2023-07-30T01:50:48;2.03;;;1.90;;
8665;SDS011;4370;48.916;8.380;2023-07-30T01:53:14;2.80;;;2.43;;
8665;SDS011;4370;48.916;8.380;2023-07-30T01:55:40;2.73;;;2.40;;
8665;SDS011;4370;48.916;8.380;2023-07-30T01:58:09;2.43;;;2.20;;
8665;SDS011;4370;48.916;8.380;2023-07-30T02:00:35;2.60;;;2.40;;
8665;SDS011;4370;48.916;8.380;2023-07-30T02:03:00;2.80;;;2.50;;
8665;SDS011;4370;48.916;8.380;2023-07-30T02:05:26;4.43;;;2.50;;
8665;SDS011;4370;48.916;8.380;2023-07-30T02:07:51;3.43;;;2.83;;
8665;SDS011;4370;48.916;8.380;2023-07-30T02:10:17;3.07;;;2.63;;
8665;SDS011;4370;48.916;8.380;2023-07-30T02:12:43;2.47;;;2.27;;
8665;SDS011;4370;48.916;8.380;2023-07-30T02:15:09;3.10;;;2.80;;
8665;SDS011;4370;48.916;8.380;2023-07-30T02:17:35;4.03;;;3.07;;
8665;SDS011;4370;48.916;8.380;2023-07-30T02:20:00;3.67;;;3.20;;
8665;SDS011;4370;48.916;8.380;2023-07-30T02:22:26;3.10;;;2.73;;
8665;SDS011;4370;48.916;8.380;2023-07-30T02:24:51;2.93;;;2.63;;
8665;SDS011;4370;48.916;8.380;2023-07-30T02:27:17;3.00;;;2.70;;
8665;SDS011;4370;48.916;8.380;2023-07-30T02:29:43;2.37;;;2.17;;
8665;SDS011;4370;48.916;8.380;2023-07-30T02:32:09;2.37;;;2.17;;
8665;SDS011;4370;48.916;8.380;2023-07-30T02:34:35;2.70;;;2.50;;
8665;SDS011;4370;48.916;8.380;2023-07-30T02:37:00;2.70;;;2.30;;
8665;SDS011;4370;48.916;8.380;2023-07-30T02:39:28;3.00;;;2.70;;
8665;SDS011;4370;48.916;8.380;2023-07-30T02:41:54;3.40;;;3.10;;
8665;SDS011;4370;48.916;8.380;2023-07-30T02:44:22;3.60;;;3.03;;
8665;SDS011;4370;48.916;8.380;2023-07-30T02:46:48;3.20;;;2.90;;
8665;SDS011;4370;48.916;8.380;2023-07-30T02:49:14;3.23;;;2.93;;
8665;SDS011;4370;48.916;8.380;2023-07-30T02:51:39;3.33;;;2.67;;
8665;SDS011;4370;48.916;8.380;2023-07-30T02:54:06;2.77;;;2.57;;
8665;SDS011;4370;48.916;8.380;2023-07-30T02:56:32;3.20;;;2.90;;
8665;SDS011;4370;48.916;8.380;2023-07-30T02:58:58;3.10;;;2.80;;
8665;SDS011;4370;48.916;8.380;2023-07-30T03:01:24;3.07;;;2.77;;
8665;SDS011;4370;48.916;8.380;2023-07-30T03:03:51;2.90;;;2.70;;
8665;SDS011;4370;48.916;8.380;2023-07-30T03:06:16;3.80;;;2.90;;
8665;SDS011;4370;48.916;8.380;2023-07-30T03:08:44;4.57;;;2.90;;
8665;SDS011;4370;48.916;8.380;2023-07-30T03:11:09;4.33;;;2.70;;
8665;SDS011;4370;48.916;8.380;2023-07-30T03:13:35;4.83;;;3.40;;
8665;SDS011;4370;48.916;8.380;2023-07-30T03:16:00;4.47;;;3.30;;
8665;SDS011;4370;48.916;8.380;2023-07-30T03:18:26;4.00;;;3.57;;
8665;SDS011;4370;48.916;8.380;2023-07-30T03:20:58;5.53;;;4.00;;
8665;SDS011;4370;48.916;8.380;2023-07-30T03:23:25;4.13;;;3.60;;
8665;SDS011;4370;48.916;8.380;2023-07-30T03:25:51;8.33;;;4.00;;
8665;SDS011;4370;48.916;8.380;2023-07-30T03:28:16;4.60;;;3.63;;
8665;SDS011;4370;48.916;8.380;2023-07-30T03:30:42;3.87;;;3.47;;
8665;SDS011;4370;48.916;8.380;2023-07-30T03:33:07;4.23;;;3.40;;
8665;SDS011;4370;48.916;8.380;2023-07-30T03:35:33;4.07;;;3.70;;
8665;SDS011;4370;48.916;8.380;2023-07-30T03:37:59;4.57;;;3.67;;
8665;SDS011;4370;48.916;8.380;2023-07-30T03:40:25;4.70;;;3.60;;
8665;SDS011;4370;48.916;8.380;2023-07-30T03:42:51;4.20;;;3.77;;
8665;SDS011;4370;48.916;8.380;2023-07-30T03:45:19;3.40;;;3.10;;
8665;SDS011;4370;48.916;8.380;2023-07-30T03:47:45;4.70;;;2.90;;
8665;SDS011;4370;48.916;8.380;2023-07-30T03:50:11;3.10;;;2.60;;
8665;SDS011;4370;48.916;8.380;2023-07-30T03:52:37;6.20;;;3.00;;
8665;SDS011;4370;48.916;8.380;2023-07-30T03:55:03;3.83;;;2.80;;
8665;SDS011;4370;48.916;8.380;2023-07-30T03:57:30;4.07;;;2.70;;
8665;SDS011;4370;48.916;8.380;2023-07-30T03:59:55;4.47;;;2.73;;
8665;SDS011;4370;48.916;8.380;2023-07-30T04:02:21;4.20;;;2.70;;
8665;SDS011;4370;48.916;8.380;2023-07-30T04:04:48;4.30;;;2.77;;
8665;SDS011;4370;48.916;8.380;2023-07-30T04:07:15;5.70;;;2.80;;
8665;SDS011;4370;48.916;8.380;2023-07-30T04:09:41;3.93;;;2.97;;
8665;SDS011;4370;48.916;8.380;2023-07-30T04:12:06;3.70;;;2.67;;
8665;SDS011;4370;48.916;8.380;2023-07-30T04:14:32;4.20;;;2.93;;
8665;SDS011;4370;48.916;8.380;2023-07-30T04:16:58;3.47;;;3.03;;
8665;SDS011;4370;48.916;8.380;2023-07-30T04:19:23;4.03;;;3.10;;
8665;SDS011;4370;48.916;8.380;2023-07-30T04:21:49;4.60;;;3.03;;
8665;SDS011;4370;48.916;8.380;2023-07-30T04:24:14;3.80;;;3.20;;
8665;SDS011;4370;48.916;8.380;2023-07-30T04:26:40;3.17;;;2.60;;
8665;SDS011;4370;48.916;8.380;2023-07-30T04:29:05;3.60;;;3.17;;
8665;SDS011;4370;48.916;8.380;2023-07-30T04:31:31;3.93;;;2.90;;
8665;SDS011;4370;48.916;8.380;2023-07-30T04:33:57;3.67;;;2.90;;
8665;SDS011;4370;48.916;8.380;2023-07-30T04:36:23;3.20;;;2.70;;
8665;SDS011;4370;48.916;8.380;2023-07-30T04:38:50;6.80;;;3.60;;
8665;SDS011;4370;48.916;8.380;2023-07-30T04:41:15;7.03;;;3.07;;
8665;SDS011;4370;48.916;8.380;2023-07-30T04:43:46;3.50;;;2.87;;
8665;SDS011;4370;48.916;8.380;2023-07-30T04:46:11;6.23;;;3.07;;
8665;SDS011;4370;48.916;8.380;2023-07-30T04:48:38;3.53;;;2.80;;
8665;SDS011;4370;48.916;8.380;2023-07-30T04:51:05;3.23;;;2.93;;
8665;SDS011;4370;48.916;8.380;2023-07-30T04:53:31;4.23;;;3.20;;
8665;SDS011;4370;48.916;8.380;2023-07-30T04:55:58;4.83;;;3.20;;
8665;SDS011;4370;48.916;8.380;2023-07-30T04:58:24;4.83;;;3.67;;
8665;SDS011;4370;48.916;8.380;2023-07-30T05:00:50;3.53;;;3.20;;
8665;SDS011;4370;48.916;8.380;2023-07-30T05:03:16;2.90;;;2.70;;
8665;SDS011;4370;48.916;8.380;2023-07-30T05:05:42;3.30;;;2.77;;
8665;SDS011;4370;48.916;8.380;2023-07-30T05:08:09;3.50;;;3.20;;
8665;SDS011;4370;48.916;8.380;2023-07-30T05:10:37;3.87;;;3.27;;
8665;SDS011;4370;48.916;8.380;2023-07-30T05:13:04;3.83;;;3.00;;
8665;SDS011;4370;48.916;8.380;2023-07-30T05:15:29;3.97;;;2.80;;
8665;SDS011;4370;48.916;8.380;2023-07-30T05:17:55;3.70;;;2.83;;
8665;SDS011;4370;48.916;8.380;2023-07-30T05:20:20;3.87;;;3.00;;
8665;SDS011;4370;48.916;8.380;2023-07-30T05:22:46;3.87;;;2.80;;
8665;SDS011;4370;48.916;8.380;2023-07-30T05:25:11;3.53;;;3.10;;
8665;SDS011;4370;48.916;8.380;2023-07-30T05:27:37;3.33;;;2.87;;
8665;SDS011;4370;48.916;8.380;2023-07-30T05:30:02;2.80;;;2.60;;
8665;SDS011;4370;48.916;8.380;2023-07-30T05:32:31;4.30;;;2.50;;
8665;SDS011;4370;48.916;8.380;2023-07-30T05:34:57;3.40;;;2.90;;
8665;SDS011;4370;48.916;8.380;2023-07-30T05:37:22;4.53;;;2.70;;
8665;SDS011;4370;48.916;8.380;2023-07-30T05:39:48;2.93;;;2.73;;
8665;SDS011;4370;48.916;8.380;2023-07-30T05:42:13;3.43;;;2.70;;
8665;SDS011;4370;48.916;8.380;2023-07-30T05:44:39;3.30;;;2.50;;
8665;SDS011;4370;48.916;8.380;2023-07-30T05:47:04;3.10;;;2.80;;
8665;SDS011;4370;48.916;8.380;2023-07-30T05:49:30;5.20;;;3.40;;
8665;SDS011;4370;48.916;8.380;2023-07-30T05:51:55;3.43;;;3.00;;
8665;SDS011;4370;48.916;8.380;2023-07-30T05:54:21;2.70;;;2.50;;
8665;SDS011;4370;48.916;8.380;2023-07-30T05:56:47;2.80;;;2.60;;
8665;SDS011;4370;48.916;8.380;2023-07-30T05:59:16;3.57;;;2.67;;
8665;SDS011;4370;48.916;8.380;2023-07-30T06:01:42;2.73;;;2.50;;
8665;SDS011;4370;48.916;8.380;2023-07-30T06:04:09;4.33;;;3.30;;
8665;SDS011;4370;48.916;8.380;2023-07-30T06:06:36;5.20;;;2.57;;
8665;SDS011;4370;48.916;8.380;2023-07-30T06:09:01;4.67;;;2.70;;
8665;SDS011;4370;48.916;8.380;2023-07-30T06:11:27;3.03;;;2.37;;
8665;SDS011;4370;48.916;8.380;2023-07-30T06:13:53;4.07;;;2.60;;
8665;SDS011;4370;48.916;8.380;2023-07-30T06:16:21;4.17;;;2.43;;
8665;SDS011;4370;48.916;8.380;2023-07-30T06:18:47;3.10;;;2.67;;
8665;SDS011;4370;48.916;8.380;2023-07-30T06:21:13;3.10;;;2.77;;
8665;SDS011;4370;48.916;8.380;2023-07-30T06:23:39;2.70;;;2.43;;
8665;SDS011;4370;48.916;8.380;2023-07-30T06:26:05;3.03;;;2.43;;
8665;SDS011;4370;48.916;8.380;2023-07-30T06:28:32;6.17;;;3.10;;
8665;SDS011;4370;48.916;8.380;2023-07-30T06:30:59;3.07;;;2.47;;
8665;SDS011;4370;48.916;8.380;2023-07-30T06:33:29;3.63;;;2.90;;
8665;SDS011;4370;48.916;8.380;2023-07-30T06:35:55;3.80;;;2.80;;
8665;SDS011;4370;48.916;8.380;2023-07-30T06:38:21;4.80;;;2.80;;
8665;SDS011;4370;48.916;8.380;2023-07-30T06:40:47;4.37;;;3.10;;
8665;SDS011;4370;48.916;8.380;2023-07-30T06:43:12;3.23;;;2.60;;
8665;SDS011;4370;48.916;8.380;2023-07-30T06:45:39;2.80;;;2.60;;
8665;SDS011;4370;48.916;8.380;2023-07-30T06:48:04;3.00;;;2.70;;
8665;SDS011;4370;48.916;8.380;2023-07-30T06:50:31;3.10;;;2.80;;
8665;SDS011;4370;48.916;8.380;2023-07-30T06:52:57;2.93;;;2.70;;
8665;SDS011;4370;48.916;8.380;2023-07-30T06:55:22;3.23;;;2.93;;
8665;SDS011;4370;48.916;8.380;2023-07-30T06:57:49;3.03;;;2.70;;
8665;SDS011;4370;48.916;8.380;2023-07-30T07:00:15;3.57;;;2.73;;
8665;SDS011;4370;48.916;8.380;2023-07-30T07:02:46;2.70;;;2.50;;
8665;SDS011;4370;48.916;8.380;2023-07-30T07:05:15;2.93;;;2.60;;
8665;SDS011;4370;48.916;8.380;2023-07-30T07:07:40;3.03;;;2.80;;
8665;SDS011;4370;48.916;8.380;2023-07-30T07:10:06;3.43;;;3.10;;
8665;SDS011;4370;48.916;8.380;2023-07-30T07:12:32;5.00;;;2.90;;
8665;SDS011;4370;48.916;8.380;2023-07-30T07:14:59;4.73;;;3.10;;
8665;SDS011;4370;48.916;8.380;2023-07-30T07:17:27;3.20;;;2.90;;
8665;SDS011;4370;48.916;8.380;2023-07-30T07:19:53;2.90;;;2.60;;
8665;SDS011;4370;48.916;8.380;2023-07-30T07:22:20;3.40;;;2.40;;
8665;SDS011;4370;48.916;8.380;2023-07-30T07:24:45;3.17;;;2.87;;
8665;SDS011;4370;48.916;8.380;2023-07-30T07:27:12;2.97;;;2.63;;
8665;SDS011;4370;48.916;8.380;2023-07-30T07:29:37;3.00;;;2.70;;
8665;SDS011;4370;48.916;8.380;2023-07-30T07:32:03;2.93;;;2.70;;
8665;SDS011;4370;48.916;8.380;2023-07-30T07:34:29;2.90;;;2.60;;
8665;SDS011;4370;48.916;8.380;2023-07-30T07:36:55;2.73;;;2.43;;
8665;SDS011;4370;48.916;8.380;2023-07-30T07:39:20;2.33;;;2.13;;
8665;SDS011;4370;48.916;8.380;2023-07-30T07:41:46;2.90;;;2.17;;
8665;SDS011;4370;48.916;8.380;2023-07-30T07:44:12;2.40;;;2.10;;
8665;SDS011;4370;48.916;8.380;2023-07-30T07:46:40;2.23;;;2.03;;
8665;SDS011;4370;48.916;8.380;2023-07-30T07:49:06;2.87;;;2.30;;
8665;SDS011;4370;48.916;8.380;2023-07-30T07:51:33;2.10;;;1.70;;
8665;SDS011;4370;48.916;8.380;2023-07-30T07:53:59;1.77;;;1.67;;
8665;SDS011;4370;48.916;8.380;2023-07-30T07:56:24;1.73;;;1.63;;
8665;SDS011;4370;48.916;8.380;2023-07-30T07:58:50;1.88;;;1.60;;
8665;SDS011;4370;48.916;8.380;2023-07-30T08:01:15;2.05;;;1.50;;
8665;SDS011;4370;48.916;8.380;2023-07-30T08:03:41;1.98;;;1.73;;
8665;SDS011;4370;48.916;8.380;2023-07-30T08:06:06;3.85;;;1.85;;
8665;SDS011;4370;48.916;8.380;2023-07-30T08:08:33;2.50;;;1.92;;
8665;SDS011;4370;48.916;8.380;2023-07-30T08:11:02;2.58;;;1.60;;
8665;SDS011;4370;48.916;8.380;2023-07-30T08:13:33;2.45;;;1.90;;
8665;SDS011;4370;48.916;8.380;2023-07-30T08:15:59;3.03;;;2.00;;
8665;SDS011;4370;48.916;8.380;2023-07-30T08:18:25;2.77;;;2.00;;
8665;SDS011;4370;48.916;8.380;2023-07-30T08:20:52;2.63;;;1.97;;
8665;SDS011;4370;48.916;8.380;2023-07-30T08:23:17;2.20;;;2.00;;
8665;SDS011;4370;48.916;8.380;2023-07-30T08:25:44;1.83;;;1.73;;
8665;SDS011;4370;48.916;8.380;2023-07-30T08:28:10;2.77;;;2.30;;
8665;SDS011;4370;48.916;8.380;2023-07-30T08:30:35;3.30;;;2.20;;
8665;SDS011;4370;48.916;8.380;2023-07-30T08:33:01;4.23;;;2.30;;
8665;SDS011;4370;48.916;8.380;2023-07-30T08:35:27;2.30;;;2.10;;
8665;SDS011;4370;48.916;8.380;2023-07-30T08:37:53;3.30;;;2.00;;
8665;SDS011;4370;48.916;8.380;2023-07-30T08:40:20;3.03;;;2.27;;
8665;SDS011;4370;48.916;8.380;2023-07-30T08:42:48;3.83;;;2.17;;
8665;SDS011;4370;48.916;8.380;2023-07-30T08:45:16;4.27;;;1.90;;
8665;SDS011;4370;48.916;8.380;2023-07-30T08:47:41;3.63;;;2.37;;
8665;SDS011;4370;48.916;8.380;2023-07-30T08:50:07;2.93;;;2.30;;
8665;SDS011;4370;48.916;8.380;2023-07-30T08:52:33;4.47;;;2.40;;
8665;SDS011;4370;48.916;8.380;2023-07-30T08:55:01;2.47;;;2.10;;
8665;SDS011;4370;48.916;8.380;2023-07-30T08:57:31;2.83;;;2.30;;
8665;SDS011;4370;48.916;8.380;2023-07-30T09:00:00;2.97;;;2.20;;
8665;SDS011;4370;48.916;8.380;2023-07-30T09:02:31;4.13;;;2.47;;
8665;SDS011;4370;48.916;8.380;2023-07-30T09:04:59;3.03;;;2.20;;
8665;SDS011;4370;48.916;8.380;2023-07-30T09:07:29;2.40;;;2.20;;
8665;SDS011;4370;48.916;8.380;2023-07-30T09:09:55;3.13;;;2.07;;
8665;SDS011;4370;48.916;8.380;2023-07-30T09:12:25;2.40;;;2.10;;
8665;SDS011;4370;48.916;8.380;2023-07-30T09:14:54;3.60;;;2.33;;
8665;SDS011;4370;48.916;8.380;2023-07-30T09:17:20;5.07;;;2.70;;
8665;SDS011;4370;48.916;8.380;2023-07-30T09:19:46;5.17;;;2.53;;
8665;SDS011;4370;48.916;8.380;2023-07-30T09:22:27;4.97;;;2.60;;
8665;SDS011;4370;48.916;8.380;2023-07-30T09:24:54;3.87;;;2.17;;
8665;SDS011;4370;48.916;8.380;2023-07-30T09:27:21;3.83;;;2.83;;
8665;SDS011;4370;48.916;8.380;2023-07-30T09:29:57;3.77;;;2.30;;
8665;SDS011;4370;48.916;8.380;2023-07-30T09:32:31;3.35;;;2.33;;
8665;SDS011;4370;48.916;8.380;2023-07-30T09:35:05;4.47;;;2.22;;
8665;SDS011;4370;48.916;8.380;2023-07-30T09:37:36;4.05;;;2.47;;
8665;SDS011;4370;48.916;8.380;2023-07-30T09:40:15;4.50;;;2.40;;
8665;SDS011;4370;48.916;8.380;2023-07-30T09:42:44;4.97;;;2.20;;
8665;SDS011;4370;48.916;8.380;2023-07-30T09:45:17;3.20;;;2.30;;
8665;SDS011;4370;48.916;8.380;2023-07-30T09:47:47;3.58;;;2.30;;
8665;SDS011;4370;48.916;8.380;2023-07-30T09:50:14;5.65;;;2.65;;
8665;SDS011;4370;48.916;8.380;2023-07-30T09:52:40;3.03;;;2.42;;
8665;SDS011;4370;48.916;8.380;2023-07-30T09:55:07;4.93;;;2.38;;
8665;SDS011;4370;48.916;8.380;2023-07-30T09:57:33;2.50;;;2.20;;
8665;SDS011;4370;48.916;8.380;2023-07-30T09:59:58;2.67;;;2.33;;
8665;SDS011;4370;48.916;8.380;2023-07-30T10:02:25;3.13;;;2.43;;
8665;SDS011;4370;48.916;8.380;2023-07-30T10:04:59;4.93;;;2.50;;
8665;SDS011;4370;48.916;8.380;2023-07-30T10:07:26;3.23;;;2.27;;
8665;SDS011;4370;48.916;8.380;2023-07-30T10:09:55;2.97;;;2.37;;
8665;SDS011;4370;48.916;8.380;2023-07-30T10:12:35;2.50;;;2.30;;
8665;SDS011;4370;48.916;8.380;2023-07-30T10:15:03;2.77;;;2.17;;
8665;SDS011;4370;48.916;8.380;2023-07-30T10:17:32;4.87;;;2.70;;
8665;SDS011;4370;48.916;8.380;2023-07-30T10:20:06;4.73;;;2.20;;
8665;SDS011;4370;48.916;8.380;2023-07-30T10:22:53;3.77;;;2.30;;
8665;SDS011;4370;48.916;8.380;2023-07-30T10:25:21;2.73;;;2.40;;
8665;SDS011;4370;48.916;8.380;2023-07-30T10:27:52;5.17;;;2.70;;
8665;SDS011;4370;48.916;8.380;2023-07-30T10:30:18;2.87;;;2.37;;
8665;SDS011;4370;48.916;8.380;2023-07-30T10:35:47;2.10;;;1.90;;
8665;SDS011;4370;48.916;8.380;2023-07-30T10:38:21;2.40;;;2.13;;
8665;SDS011;4370;48.916;8.380;2023-07-30T10:43:41;3.00;;;2.07;;
8665;SDS011;4370;48.916;8.380;2023-07-30T10:46:11;2.30;;;2.10;;
8665;SDS011;4370;48.916;8.380;2023-07-30T10:48:39;2.30;;;2.10;;
8665;SDS011;4370;48.916;8.380;2023-07-30T10:51:06;3.53;;;2.10;;
8665;SDS011;4370;48.916;8.380;2023-07-30T10:53:33;2.33;;;1.93;;
8665;SDS011;4370;48.916;8.380;2023-07-30T10:56:04;4.13;;;2.03;;
8665;SDS011;4370;48.916;8.380;2023-07-30T10:58:33;3.78;;;2.00;;
8665;SDS011;4370;48.916;8.380;2023-07-30T11:01:04;4.60;;;1.97;;
8665;SDS011;4370;48.916;8.380;2023-07-30T11:03:31;3.20;;;2.05;;
8665;SDS011;4370;48.916;8.380;2023-07-30T11:05:57;2.38;;;1.85;;
8665;SDS011;4370;48.916;8.380;2023-07-30T11:11:01;2.70;;;1.85;;
8665;SDS011;4370;48.916;8.380;2023-07-30T11:13:27;2.38;;;1.70;;
8665;SDS011;4370;48.916;8.380;2023-07-30T11:15:53;1.95;;;1.67;;
8665;SDS011;4370;48.916;8.380;2023-07-30T11:18:18;2.65;;;1.58;;
8665;SDS011;4370;48.916;8.380;2023-07-30T11:20:44;4.35;;;1.50;;
8665;SDS011;4370;48.916;8.380;2023-07-30T11:23:18;1.77;;;1.48;;
8665;SDS011;4370;48.916;8.380;2023-07-30T11:25:47;2.78;;;1.70;;
8665;SDS011;4370;48.916;8.380;2023-07-30T11:28:29;2.67;;;1.75;;
8665;SDS011;4370;48.916;8.380;2023-07-30T11:31:01;2.97;;;1.60;;
8665;SDS011;4370;48.916;8.380;2023-07-30T11:33:29;2.97;;;1.70;;
8665;SDS011;4370;48.916;8.380;2023-07-30T11:35:55;5.03;;;1.50;;
8665;SDS011;4370;48.916;8.380;2023-07-30T11:38:25;3.47;;;1.80;;
8665;SDS011;4370;48.916;8.380;2023-07-30T11:40:52;1.92;;;1.50;;
8665;SDS011;4370;48.916;8.380;2023-07-30T11:43:20;3.28;;;1.35;;
8665;SDS011;4370;48.916;8.380;2023-07-30T11:45:46;3.63;;;1.53;;
8665;SDS011;4370;48.916;8.380;2023-07-30T11:48:12;2.57;;;1.40;;
8665;SDS011;4370;48.916;8.380;2023-07-30T11:50:43;3.25;;;1.77;;
8665;SDS011;4370;48.916;8.380;2023-07-30T11:53:16;2.97;;;1.50;;
8665;SDS011;4370;48.916;8.380;2023-07-30T11:55:43;2.73;;;1.60;;
8665;SDS011;4370;48.916;8.380;2023-07-30T11:58:10;2.50;;;1.50;;
8665;SDS011;4370;48.916;8.380;2023-07-30T12:00:37;2.77;;;1.60;;
8665;SDS011;4370;48.916;8.380;2023-07-30T12:03:10;4.67;;;2.07;;
8665;SDS011;4370;48.916;8.380;2023-07-30T12:05:38;2.83;;;1.67;;
8665;SDS011;4370;48.916;8.380;2023-07-30T12:08:04;1.98;;;1.50;;
8665;SDS011;4370;48.916;8.380;2023-07-30T12:10:41;2.10;;;1.40;;
8665;SDS011;4370;48.916;8.380;2023-07-30T12:13:12;3.50;;;1.60;;
8665;SDS011;4370;48.916;8.380;2023-07-30T12:15:42;4.30;;;1.75;;
8665;SDS011;4370;48.916;8.380;2023-07-30T12:18:08;3.22;;;1.60;;
8665;SDS011;4370;48.916;8.380;2023-07-30T12:20:34;1.98;;;1.40;;
8665;SDS011;4370;48.916;8.380;2023-07-30T12:23:00;3.83;;;1.70;;
8665;SDS011;4370;48.916;8.380;2023-07-30T12:25:27;3.47;;;1.55;;
8665;SDS011;4370;48.916;8.380;2023-07-30T12:27:53;3.85;;;1.80;;
8665;SDS011;4370;48.916;8.380;2023-07-30T12:30:19;4.00;;;1.83;;
8665;SDS011;4370;48.916;8.380;2023-07-30T12:32:44;4.45;;;1.80;;
8665;SDS011;4370;48.916;8.380;2023-07-30T12:35:10;3.22;;;1.73;;
8665;SDS011;4370;48.916;8.380;2023-07-30T12:37:36;4.10;;;1.90;;
8665;SDS011;4370;48.916;8.380;2023-07-30T12:40:03;3.83;;;1.50;;
8665;SDS011;4370;48.916;8.380;2023-07-30T12:42:29;3.70;;;1.80;;
8665;SDS011;4370;48.916;8.380;2023-07-30T12:44:55;3.72;;;2.00;;
8665;SDS011;4370;48.916;8.380;2023-07-30T12:47:21;2.20;;;1.50;;
8665;SDS011;4370;48.916;8.380;2023-07-30T12:49:47;3.15;;;1.60;;
8665;SDS011;4370;48.916;8.380;2023-07-30T12:52:12;3.38;;;1.70;;
8665;SDS011;4370;48.916;8.380;2023-07-30T12:54:38;4.55;;;1.92;;
8665;SDS011;4370;48.916;8.380;2023-07-30T12:57:03;3.75;;;1.92;;
8665;SDS011;4370;48.916;8.380;2023-07-30T12:59:29;4.13;;;1.73;;
8665;SDS011;4370;48.916;8.380;2023-07-30T13:01:57;4.97;;;1.60;;
8665;SDS011;4370;48.916;8.380;2023-07-30T13:04:23;3.30;;;1.90;;
8665;SDS011;4370;48.916;8.380;2023-07-30T13:06:52;4.70;;;1.60;;
8665;SDS011;4370;48.916;8.380;2023-07-30T13:09:20;5.85;;;1.75;;
8665;SDS011;4370;48.916;8.380;2023-07-30T13:11:47;2.95;;;1.70;;
8665;SDS011;4370;48.916;8.380;2023-07-30T13:14:13;4.65;;;1.85;;
8665;SDS011;4370;48.916;8.380;2023-07-30T13:16:40;3.40;;;1.83;;
8665;SDS011;4370;48.916;8.380;2023-07-30T13:19:06;3.37;;;1.70;;
8665;SDS011;4370;48.916;8.380;2023-07-30T13:21:31;4.55;;;1.95;;
8665;SDS011;4370;48.916;8.380;2023-07-30T13:23:57;2.80;;;1.73;;
8665;SDS011;4370;48.916;8.380;2023-07-30T13:26:23;5.20;;;2.27;;
8665;SDS011;4370;48.916;8.380;2023-07-30T13:28:48;2.77;;;1.77;;
8665;SDS011;4370;48.916;8.380;2023-07-30T13:31:14;3.80;;;1.70;;
8665;SDS011;4370;48.916;8.380;2023-07-30T13:33:40;4.53;;;1.67;;
8665;SDS011;4370;48.916;8.380;2023-07-30T13:36:07;3.53;;;1.40;;
8665;SDS011;4370;48.916;8.380;2023-07-30T13:38:33;3.72;;;1.67;;
8665;SDS011;4370;48.916;8.380;2023-07-30T13:40:59;3.47;;;1.90;;
8665;SDS011;4370;48.916;8.380;2023-07-30T13:43:24;2.70;;;1.70;;
8665;SDS011;4370;48.916;8.380;2023-07-30T13:45:50;5.40;;;1.87;;
8665;SDS011;4370;48.916;8.380;2023-07-30T13:48:17;3.57;;;1.80;;
8665;SDS011;4370;48.916;8.380;2023-07-30T13:50:43;3.77;;;1.60;;
8665;SDS011;4370;48.916;8.380;2023-07-30T13:53:09;4.70;;;1.50;;
8665;SDS011;4370;48.916;8.380;2023-07-30T13:55:37;4.20;;;2.10;;
8665;SDS011;4370;48.916;8.380;2023-07-30T13:58:05;6.17;;;2.33;;
8665;SDS011;4370;48.916;8.380;2023-07-30T14:00:32;7.50;;;1.97;;
8665;SDS011;4370;48.916;8.380;2023-07-30T14:02:57;3.57;;;1.63;;
8665;SDS011;4370;48.916;8.380;2023-07-30T14:05:27;3.30;;;1.60;;
8665;SDS011;4370;48.916;8.380;2023-07-30T14:07:54;3.03;;;1.40;;
8665;SDS011;4370;48.916;8.380;2023-07-30T14:10:22;2.47;;;1.80;;
8665;SDS011;4370;48.916;8.380;2023-07-30T14:12:48;6.13;;;2.33;;
8665;SDS011;4370;48.916;8.380;2023-07-30T14:15:13;2.73;;;1.83;;
8665;SDS011;4370;48.916;8.380;2023-07-30T14:17:40;5.27;;;2.37;;
8665;SDS011;4370;48.916;8.380;2023-07-30T14:20:05;4.03;;;1.50;;
8665;SDS011;4370;48.916;8.380;2023-07-30T14:22:32;6.17;;;2.00;;
8665;SDS011;4370;48.916;8.380;2023-07-30T14:24:58;3.97;;;1.60;;
8665;SDS011;4370;48.916;8.380;2023-07-30T14:27:24;3.73;;;1.60;;
8665;SDS011;4370;48.916;8.380;2023-07-30T14:29:50;3.90;;;1.60;;
8665;SDS011;4370;48.916;8.380;2023-07-30T14:32:19;5.20;;;1.70;;
8665;SDS011;4370;48.916;8.380;2023-07-30T14:34:46;3.33;;;1.70;;
8665;SDS011;4370;48.916;8.380;2023-07-30T14:38:04;4.80;;;1.77;;
8665;SDS011;4370;48.916;8.380;2023-07-30T14:40:30;4.20;;;2.00;;
8665;SDS011;4370;48.916;8.380;2023-07-30T14:42:57;6.50;;;1.90;;
8665;SDS011;4370;48.916;8.380;2023-07-30T14:45:22;7.63;;;2.00;;
8665;SDS011;4370;48.916;8.380;2023-07-30T14:47:49;5.87;;;1.87;;
8665;SDS011;4370;48.916;8.380;2023-07-30T14:50:15;6.57;;;2.17;;
8665;SDS011;4370;48.916;8.380;2023-07-30T14:52:40;5.27;;;2.00;;
8665;SDS011;4370;48.916;8.380;2023-07-30T14:55:06;3.33;;;1.70;;
8665;SDS011;4370;48.916;8.380;2023-07-30T14:57:33;2.93;;;1.50;;
8665;SDS011;4370;48.916;8.380;2023-07-30T14:59:59;3.73;;;1.50;;
8665;SDS011;4370;48.916;8.380;2023-07-30T15:02:26;5.47;;;1.57;;
8665;SDS011;4370;48.916;8.380;2023-07-30T15:04:53;4.43;;;1.83;;
8665;SDS011;4370;48.916;8.380;2023-07-30T15:07:21;5.20;;;1.70;;
8665;SDS011;4370;48.916;8.380;2023-07-30T15:09:54;3.27;;;1.70;;
8665;SDS011;4370;48.916;8.380;2023-07-30T15:12:19;5.57;;;1.70;;
8665;SDS011;4370;48.916;8.380;2023-07-30T15:14:45;3.93;;;1.63;;
8665;SDS011;4370;48.916;8.380;2023-07-30T15:17:11;5.47;;;1.67;;
8665;SDS011;4370;48.916;8.380;2023-07-30T15:19:37;2.90;;;1.67;;
8665;SDS011;4370;48.916;8.380;2023-07-30T15:22:03;3.10;;;1.50;;
8665;SDS011;4370;48.916;8.380;2023-07-30T15:24:30;2.70;;;1.60;;
8665;SDS011;4370;48.916;8.380;2023-07-30T15:26:56;2.53;;;1.53;;